createdAt,value
2019-04-04T00:00:08.276Z,97293.13
2019-04-04T00:02:38.742Z,97290.38
2019-04-04T00:05:09.049Z,97283.95
2019-04-04T00:07:39.451Z,97285.60
2019-04-04T00:10:09.903Z,97289.16
2019-04-04T00:12:40.237Z,97292.25
2019-04-04T00:15:10.528Z,97295.35
2019-04-04T00:17:40.853Z,97288.70
2019-04-04T00:20:12.941Z,97288.30
2019-04-04T00:22:43.273Z,97291.50
2019-04-04T00:25:13.569Z,97281.09
2019-04-04T00:27:44.675Z,97277.56
2019-04-04T00:30:16.126Z,97273.25
2019-04-04T00:32:47.169Z,97267.61
2019-04-04T00:35:17.423Z,97270.04
2019-04-04T00:37:47.668Z,97262.29
2019-04-04T00:40:19.041Z,97262.75
2019-04-04T00:42:49.339Z,97262.64
2019-04-04T00:45:19.624Z,97269.48
2019-04-04T00:47:49.994Z,97268.39
2019-04-04T00:50:20.243Z,97262.52
2019-04-04T00:52:50.512Z,97265.11
2019-04-04T00:55:21.110Z,97261.88
2019-04-04T00:57:51.456Z,97257.33
2019-04-04T01:00:22.018Z,97263.53
2019-04-04T01:02:53.757Z,97263.00
2019-04-04T01:05:24.002Z,97265.55
2019-04-04T01:07:54.409Z,97246.26
2019-04-04T01:10:24.675Z,97240.19
2019-04-04T01:12:54.976Z,97236.08
2019-04-04T01:15:25.173Z,97237.95
2019-04-04T01:17:55.598Z,97233.19
2019-04-04T01:20:26.788Z,97234.31
2019-04-04T01:22:57.533Z,97234.20
2019-04-04T01:25:27.876Z,97229.55
2019-04-04T01:27:58.496Z,97232.30
2019-04-04T01:30:28.871Z,97226.11
2019-04-04T01:32:59.479Z,97231.66
2019-04-04T01:35:29.816Z,97225.78
2019-04-04T01:38:03.089Z,97220.14
2019-04-04T01:40:33.964Z,97221.80
2019-04-04T01:43:04.164Z,97214.37
2019-04-04T01:45:34.396Z,97207.19
2019-04-04T01:48:04.595Z,97206.50
2019-04-04T01:50:34.898Z,97210.84
2019-04-04T01:53:05.486Z,97210.61
2019-04-04T01:55:36.764Z,97216.59
2019-04-04T01:58:07.908Z,97219.25
2019-04-04T02:00:38.932Z,97212.95
2019-04-04T02:03:09.141Z,97212.28
2019-04-04T02:05:39.980Z,97209.07
2019-04-04T02:08:10.198Z,97205.89
2019-04-04T02:10:40.631Z,97206.42
2019-04-04T02:13:11.240Z,97190.47
2019-04-04T02:15:42.849Z,97189.37
2019-04-04T02:18:13.346Z,97192.70
2019-04-04T02:20:43.899Z,97180.30
2019-04-04T02:23:14.196Z,97185.39
2019-04-04T02:25:44.436Z,97188.28
2019-04-04T02:28:14.654Z,97192.70
2019-04-04T02:30:48.029Z,97183.39
2019-04-04T02:33:17.044Z,97182.50
2019-04-04T02:35:47.391Z,97188.73
2019-04-04T02:38:17.579Z,97194.03
2019-04-04T02:40:47.827Z,97190.16
2019-04-04T02:43:18.108Z,97186.19
2019-04-04T02:45:48.861Z,97191.06
2019-04-04T02:48:23.409Z,97189.07
2019-04-04T02:50:51.318Z,97187.86
2019-04-04T02:53:21.567Z,97192.28
2019-04-04T02:55:51.848Z,97189.84
2019-04-04T02:58:22.017Z,97195.17
2019-04-04T03:00:52.520Z,97186.53
2019-04-04T03:03:23.872Z,97189.74
2019-04-04T03:05:54.033Z,97191.18
2019-04-04T03:08:24.310Z,97192.08
2019-04-04T03:10:54.538Z,97193.97
2019-04-04T03:13:24.757Z,97197.86
2019-04-04T03:15:54.984Z,97187.67
2019-04-04T03:18:25.262Z,97188.31
2019-04-04T03:20:55.906Z,97173.48
2019-04-04T03:23:26.154Z,97184.57
2019-04-04T03:25:56.457Z,97173.62
2019-04-04T03:28:31.510Z,97167.72
2019-04-04T03:31:02.903Z,97177.48
2019-04-04T03:33:32.627Z,97179.80
2019-04-04T03:36:03.110Z,97170.16
2019-04-04T03:38:33.419Z,97165.08
2019-04-04T03:41:03.643Z,97163.98
2019-04-04T03:43:33.857Z,97170.18
2019-04-04T03:46:04.045Z,97165.20
2019-04-04T03:48:34.301Z,97159.01
2019-04-04T03:51:05.216Z,97157.45
2019-04-04T03:53:36.249Z,97145.38
2019-04-04T03:56:06.478Z,97156.78
2019-04-04T03:58:36.761Z,97153.68
2019-04-04T04:01:07.108Z,97157.55
2019-04-04T04:03:37.512Z,97151.77
2019-04-04T04:06:08.852Z,97149.58
2019-04-04T04:08:39.737Z,97149.57
2019-04-04T04:11:09.939Z,97161.09
2019-04-04T04:13:40.521Z,97150.80
2019-04-04T04:16:12.830Z,97164.62
2019-04-04T04:18:43.115Z,97163.88
2019-04-04T04:21:13.419Z,97163.08
2019-04-04T04:23:43.890Z,97170.29
2019-04-04T04:26:14.128Z,97161.23
2019-04-04T04:28:44.864Z,97172.49
2019-04-04T04:31:15.595Z,97170.84
2019-04-04T04:33:46.118Z,97172.63
2019-04-04T04:36:17.935Z,97179.04
2019-04-04T04:38:48.272Z,97186.00
2019-04-04T04:41:20.459Z,97185.22
2019-04-04T04:43:50.475Z,97188.45
2019-04-04T04:46:20.694Z,97193.00
2019-04-04T04:48:51.335Z,97194.28
2019-04-04T04:51:21.589Z,97197.27
2019-04-04T04:53:52.008Z,97194.07
2019-04-04T04:56:22.217Z,97186.16
2019-04-04T04:58:55.341Z,97173.54
2019-04-04T05:01:25.039Z,97174.41
2019-04-04T05:03:56.548Z,97178.30
2019-04-04T05:06:27.286Z,97164.55
2019-04-04T05:09:01.099Z,97168.72
2019-04-04T05:11:32.685Z,97167.59
2019-04-04T05:14:03.290Z,97169.91
2019-04-04T05:16:33.577Z,97170.41
2019-04-04T05:19:04.004Z,97167.78
2019-04-04T05:21:34.761Z,97164.03
2019-04-04T05:24:05.159Z,97164.84
2019-04-04T05:26:38.501Z,97156.41
2019-04-04T05:29:08.768Z,97152.95
2019-04-04T05:31:39.440Z,97161.09
2019-04-04T05:34:09.752Z,97157.37
2019-04-04T05:36:45.266Z,97160.09
2019-04-04T05:39:18.113Z,97151.59
2019-04-04T05:41:48.569Z,97147.83
2019-04-04T05:44:19.044Z,97147.06
2019-04-04T05:46:52.011Z,97149.13
2019-04-04T05:49:21.893Z,97148.30
2019-04-04T05:51:52.168Z,97158.23
2019-04-04T05:54:22.366Z,97160.34
2019-04-04T05:56:52.644Z,97158.94
2019-04-04T05:59:23.925Z,97151.11
2019-04-04T06:01:56.418Z,97153.84
2019-04-04T06:04:27.405Z,97153.44
2019-04-04T06:06:57.733Z,97158.04
2019-04-04T06:09:27.971Z,97155.82
2019-04-04T06:11:58.600Z,97148.73
2019-04-04T06:14:30.005Z,97148.63
2019-04-04T06:17:01.295Z,97150.16
2019-04-04T06:19:31.645Z,97156.80
2019-04-04T06:22:03.589Z,97145.66
2019-04-04T06:24:33.818Z,97141.31
2019-04-04T06:27:04.675Z,97143.49
2019-04-04T06:29:36.505Z,97141.25
2019-04-04T06:32:07.656Z,97133.31
2019-04-04T06:34:38.044Z,97130.11
2019-04-04T06:37:13.424Z,97126.69
2019-04-04T06:39:47.880Z,97125.55
2019-04-04T06:42:22.805Z,97121.52
2019-04-04T06:45:02.923Z,97119.56
2019-04-04T06:47:43.141Z,97111.70
2019-04-04T06:50:22.341Z,97118.95
2019-04-04T06:53:01.627Z,97111.55
2019-04-04T06:55:39.731Z,97108.56
2019-04-04T06:58:17.068Z,97092.30
2019-04-04T07:00:49.922Z,97102.20
2019-04-04T07:03:20.172Z,97107.44
2019-04-04T07:05:51.898Z,97108.44
2019-04-04T07:08:29.155Z,97098.81
2019-04-04T07:11:03.234Z,97100.12
2019-04-04T07:13:42.205Z,97098.39
2019-04-04T07:16:08.033Z,97091.92
2019-04-04T07:18:39.061Z,97074.76
2019-04-04T07:21:10.748Z,97093.59
2019-04-04T07:23:42.085Z,97083.84
2019-04-04T07:26:14.890Z,97091.52
2019-04-04T07:28:44.850Z,97078.83
2019-04-04T07:31:17.554Z,97081.15
2019-04-04T07:33:49.387Z,97086.55
2019-04-04T07:36:20.228Z,97072.26
2019-04-04T07:38:51.122Z,97076.58
2019-04-04T07:41:21.465Z,97072.60
2019-04-04T07:43:52.360Z,97081.87
2019-04-04T07:46:22.711Z,97078.69
2019-04-04T07:48:58.690Z,97090.97
2019-04-04T07:51:36.300Z,97075.61
2019-04-04T07:54:07.378Z,97076.91
2019-04-04T07:56:38.823Z,97079.21
2019-04-04T07:59:09.071Z,97080.56
2019-04-04T08:01:50.941Z,97079.98
2019-04-04T08:04:16.059Z,97080.04
2019-04-04T08:06:46.451Z,97063.35
2019-04-04T08:09:20.345Z,97063.48
2019-04-04T08:11:52.236Z,97061.33
2019-04-04T08:14:22.550Z,97053.61
2019-04-04T08:16:52.935Z,97062.44
2019-04-04T08:19:23.730Z,97065.06
2019-04-04T08:21:55.284Z,97070.24
2019-04-04T08:24:27.960Z,97053.89
2019-04-04T08:26:58.329Z,97053.78
2019-04-04T08:29:28.965Z,97065.63
2019-04-04T08:32:03.113Z,97057.96
2019-04-04T08:34:36.238Z,97060.03
2019-04-04T08:37:06.158Z,97048.75
2019-04-04T08:39:38.835Z,97055.10
2019-04-04T08:42:16.312Z,97058.92
2019-04-04T08:44:57.807Z,97062.88
2019-04-04T08:47:38.766Z,97059.39
2019-04-04T08:50:10.134Z,97054.03
2019-04-04T08:52:40.390Z,97061.22
2019-04-04T08:55:13.390Z,97066.27
2019-04-04T08:57:43.854Z,97064.36
2019-04-04T09:00:16.113Z,97064.22
2019-04-04T09:02:46.417Z,97064.46
2019-04-04T09:05:16.646Z,97050.52
2019-04-04T09:07:46.959Z,97051.31
2019-04-04T09:10:17.898Z,97049.86
2019-04-04T09:12:51.519Z,97049.34
2019-04-04T09:15:22.362Z,97052.73
2019-04-04T09:17:52.866Z,97047.62
2019-04-04T09:20:23.095Z,97047.88
2019-04-04T09:22:53.460Z,97048.31
2019-04-04T09:25:23.854Z,97049.77
2019-04-04T09:27:54.243Z,97047.31
2019-04-04T09:30:26.008Z,97047.23
2019-04-04T09:32:57.898Z,97040.66
2019-04-04T09:35:28.287Z,97048.54
2019-04-04T09:37:58.532Z,97042.02
2019-04-04T09:40:30.498Z,97042.22
2019-04-04T09:43:01.261Z,97043.41
2019-04-04T09:45:31.631Z,97040.47
2019-04-04T09:48:01.882Z,97042.98
2019-04-04T09:50:32.151Z,97044.77
2019-04-04T09:53:06.114Z,97047.62
2019-04-04T09:55:36.699Z,97046.97
2019-04-04T09:58:08.562Z,97036.15
2019-04-04T10:00:41.908Z,97039.38
2019-04-04T10:03:15.378Z,97048.22
2019-04-04T10:05:45.696Z,97032.02
2019-04-04T10:08:17.411Z,97031.41
2019-04-04T10:10:47.836Z,97029.27
2019-04-04T10:13:18.066Z,97037.09
2019-04-04T10:15:48.489Z,97030.67
2019-04-04T10:18:18.713Z,97029.13
2019-04-04T10:20:48.943Z,97031.09
2019-04-04T10:23:19.783Z,97034.07
2019-04-04T10:25:50.150Z,97040.19
2019-04-04T10:28:23.313Z,97039.86
2019-04-04T10:30:53.417Z,97028.90
2019-04-04T10:33:23.708Z,97038.75
2019-04-04T10:35:53.993Z,97028.97
2019-04-04T10:38:24.449Z,97027.17
2019-04-04T10:40:54.689Z,97009.54
2019-04-04T10:43:25.033Z,97026.70
2019-04-04T10:45:55.256Z,97013.21
2019-04-04T10:48:25.973Z,97011.83
2019-04-04T10:50:57.239Z,97019.94
2019-04-04T10:53:29.342Z,97017.00
2019-04-04T10:55:59.570Z,97023.11
2019-04-04T10:58:29.935Z,97015.59
2019-04-04T11:01:02.525Z,97001.06
2019-04-04T11:03:33.940Z,97009.45
2019-04-04T11:06:04.198Z,97008.06
2019-04-04T11:08:35.916Z,97016.64
2019-04-04T11:11:06.332Z,97007.79
2019-04-04T11:13:36.784Z,97017.70
2019-04-04T11:16:08.151Z,97022.23
2019-04-04T11:18:38.439Z,96993.52
2019-04-04T11:21:08.673Z,97008.50
2019-04-04T11:23:39.157Z,97007.38
2019-04-04T11:26:09.719Z,97009.17
2019-04-04T11:28:40.089Z,97003.41
2019-04-04T11:31:10.507Z,97009.33
2019-04-04T11:33:41.538Z,97005.09
2019-04-04T11:36:11.838Z,97005.44
2019-04-04T11:38:44.131Z,97008.87
2019-04-04T11:41:15.068Z,97008.67
2019-04-04T11:43:45.399Z,97001.70
2019-04-04T11:46:15.661Z,97006.31
2019-04-04T11:48:45.953Z,97004.50
2019-04-04T11:51:16.260Z,96996.52
2019-04-04T11:53:46.589Z,96998.09
2019-04-04T11:56:17.024Z,96990.58
2019-04-04T11:58:47.366Z,96989.77
2019-04-04T12:01:18.132Z,96979.47
2019-04-04T12:03:48.415Z,96981.67
2019-04-04T12:06:18.818Z,96990.51
2019-04-04T12:08:49.049Z,96964.95
2019-04-04T12:11:22.359Z,96974.53
2019-04-04T12:13:53.471Z,96984.05
2019-04-04T12:16:25.496Z,96985.23
2019-04-04T12:19:03.985Z,96973.73
2019-04-04T12:21:37.137Z,96974.22
2019-04-04T12:24:07.391Z,96983.28
2019-04-04T12:26:37.855Z,96972.90
2019-04-04T12:29:08.167Z,96966.30
2019-04-04T12:31:38.652Z,96984.55
2019-04-04T12:34:08.961Z,96982.16
2019-04-04T12:36:40.016Z,96985.19
2019-04-04T12:39:10.261Z,96983.22
2019-04-04T12:41:42.177Z,96980.27
2019-04-04T12:44:12.582Z,96980.83
2019-04-04T12:46:42.980Z,96977.25
2019-04-04T12:49:13.428Z,96984.85
2019-04-04T12:51:45.951Z,96990.50
2019-04-04T12:54:17.125Z,96977.06
2019-04-04T12:56:47.370Z,96982.56
2019-04-04T12:59:21.457Z,96984.45
2019-04-04T13:01:51.745Z,96970.69
2019-04-04T13:04:30.910Z,96968.89
2019-04-04T13:06:53.915Z,96973.59
2019-04-04T13:09:24.267Z,96960.36
2019-04-04T13:11:56.757Z,96971.83
2019-04-04T13:14:37.314Z,96978.70
2019-04-04T13:17:07.681Z,96969.19
2019-04-04T13:19:40.363Z,96975.38
2019-04-04T13:22:10.948Z,96972.30
2019-04-04T13:24:41.550Z,96977.22
2019-04-04T13:27:13.609Z,96979.09
2019-04-04T13:29:45.933Z,96956.56
2019-04-04T13:32:16.271Z,96969.80
2019-04-04T13:34:58.593Z,96967.93
2019-04-04T13:37:19.079Z,96975.08
2019-04-04T13:39:49.415Z,96975.75
2019-04-04T13:42:19.663Z,96972.36
2019-04-04T13:44:50.670Z,96965.23
2019-04-04T13:47:22.044Z,96967.00
2019-04-04T13:49:52.387Z,96965.96
2019-04-04T13:52:24.215Z,96964.08
2019-04-04T13:54:55.950Z,96976.59
2019-04-04T13:57:27.245Z,96968.27
2019-04-04T13:59:57.647Z,96991.00
2019-04-04T14:02:29.811Z,96964.93
2019-04-04T14:05:09.575Z,96963.99
2019-04-04T14:07:32.086Z,96964.61
2019-04-04T14:10:02.629Z,96977.09
2019-04-04T14:12:32.954Z,96955.56
2019-04-04T14:15:03.534Z,96959.63
2019-04-04T14:17:33.895Z,96959.84
2019-04-04T14:20:04.503Z,96957.98
2019-04-04T14:22:34.681Z,96948.56
2019-04-04T14:25:05.766Z,96954.03
2019-04-04T14:27:37.613Z,96951.80
2019-04-04T14:30:10.287Z,96944.18
2019-04-04T14:32:41.631Z,96957.10
2019-04-04T14:35:12.080Z,96946.68
2019-04-04T14:37:43.389Z,96950.73
2019-04-04T14:40:13.905Z,96942.32
2019-04-04T14:42:44.115Z,96936.09
2019-04-04T14:45:14.391Z,96931.72
2019-04-04T14:47:44.981Z,96930.58
2019-04-04T14:50:16.473Z,96937.17
2019-04-04T14:52:46.703Z,96930.63
2019-04-04T14:55:17.964Z,96932.84
2019-04-04T14:57:48.467Z,96933.33
2019-04-04T15:00:20.420Z,96930.50
2019-04-04T15:02:50.800Z,96925.47
2019-04-04T15:05:22.274Z,96932.78
2019-04-04T15:07:52.496Z,96929.71
2019-04-04T15:10:22.744Z,96928.57
2019-04-04T15:12:52.996Z,96921.55
2019-04-04T15:15:26.092Z,96927.94
2019-04-04T15:17:55.335Z,96938.23
2019-04-04T15:20:25.626Z,96933.56
2019-04-04T15:22:55.887Z,96925.31
2019-04-04T15:25:26.125Z,96938.28
2019-04-04T15:27:58.815Z,96934.54
2019-04-04T15:30:30.068Z,96945.61
2019-04-04T15:33:02.591Z,96942.26
2019-04-04T15:35:32.349Z,96954.04
2019-04-04T15:38:02.633Z,96941.02
2019-04-04T15:40:33.095Z,96944.13
2019-04-04T15:43:04.342Z,96947.80
2019-04-04T15:45:34.716Z,96952.67
2019-04-04T15:48:05.004Z,96952.25
2019-04-04T15:50:35.356Z,96958.73
2019-04-04T15:53:05.552Z,96954.02
2019-04-04T15:55:35.773Z,96955.10
2019-04-04T15:58:06.303Z,96955.48
2019-04-04T16:00:36.682Z,96958.58
2019-04-04T16:03:09.284Z,96961.69
2019-04-04T16:05:39.664Z,96958.85
2019-04-04T16:08:11.136Z,96962.20
2019-04-04T16:10:41.636Z,96962.63
2019-04-04T16:13:11.992Z,96961.97
2019-04-04T16:15:42.494Z,96960.65
2019-04-04T16:18:12.751Z,96968.89
2019-04-04T16:20:43.056Z,96960.52
2019-04-04T16:23:13.306Z,96965.42
2019-04-04T16:25:43.563Z,96953.02
2019-04-04T16:28:14.200Z,96965.58
2019-04-04T16:30:44.381Z,96967.99
2019-04-04T16:33:14.634Z,96975.78
2019-04-04T16:35:46.071Z,96982.34
2019-04-04T16:38:16.256Z,96984.27
2019-04-04T16:40:47.125Z,96982.45
2019-04-04T16:43:17.343Z,96988.00
2019-04-04T16:45:47.544Z,96993.81
2019-04-04T16:48:17.791Z,96994.41
2019-04-04T16:50:48.076Z,96996.16
2019-04-04T16:53:18.385Z,96998.50
2019-04-04T16:55:48.657Z,96996.98
2019-04-04T16:58:19.203Z,97002.55
2019-04-04T17:00:51.117Z,97003.91
2019-04-04T17:03:23.621Z,97006.42
2019-04-04T17:05:53.908Z,97010.09
2019-04-04T17:08:24.092Z,97008.56
2019-04-04T17:10:54.462Z,97011.63
2019-04-04T17:13:24.869Z,97013.77
2019-04-04T17:15:55.090Z,97003.78
2019-04-04T17:18:25.474Z,97012.98
2019-04-04T17:20:56.758Z,97015.50
2019-04-04T17:23:26.981Z,97025.69
2019-04-04T17:25:57.504Z,97024.74
2019-04-04T17:28:28.676Z,97032.78
2019-04-04T17:30:58.958Z,97031.62
2019-04-04T17:33:31.131Z,97032.00
2019-04-04T17:36:01.431Z,97031.62
2019-04-04T17:38:31.782Z,97033.55
2019-04-04T17:41:04.700Z,97037.02
2019-04-04T17:43:34.956Z,97040.65
2019-04-04T17:46:05.478Z,97036.41
2019-04-04T17:48:35.821Z,97043.50
2019-04-04T17:51:06.444Z,97051.19
2019-04-04T17:53:36.715Z,97044.45
2019-04-04T17:56:07.429Z,97050.19
2019-04-04T17:58:38.037Z,97059.20
2019-04-04T18:01:10.174Z,97060.91
2019-04-04T18:03:40.461Z,97062.23
2019-04-04T18:06:10.648Z,97069.52
2019-04-04T18:08:40.868Z,97076.80
2019-04-04T18:11:11.299Z,97080.80
2019-04-04T18:13:41.572Z,97078.64
2019-04-04T18:16:11.769Z,97079.21
2019-04-04T18:18:42.024Z,97081.65
2019-04-04T18:21:12.241Z,97094.86
2019-04-04T18:23:42.550Z,97091.04
2019-04-04T18:26:12.763Z,97097.75
2019-04-04T18:28:43.497Z,97101.17
2019-04-04T18:31:13.692Z,97106.55
2019-04-04T18:33:44.035Z,97101.38
2019-04-04T18:36:15.002Z,97113.03
2019-04-04T18:38:46.012Z,97119.31
2019-04-04T18:41:17.715Z,97116.58
2019-04-04T18:43:48.190Z,97125.75
2019-04-04T18:46:18.444Z,97131.83
2019-04-04T18:48:48.755Z,97128.77
2019-04-04T18:51:19.147Z,97131.45
2019-04-04T18:53:49.445Z,97127.20
2019-04-04T18:56:19.698Z,97129.55
2019-04-04T18:58:49.932Z,97130.66
2019-04-04T19:01:22.401Z,97125.86
2019-04-04T19:03:52.899Z,97135.52
2019-04-04T19:06:23.812Z,97137.24
2019-04-04T19:08:54.063Z,97137.42
2019-04-04T19:11:24.347Z,97135.02
2019-04-04T19:13:54.693Z,97133.66
2019-04-04T19:16:24.929Z,97129.41
2019-04-04T19:18:55.132Z,97131.31
2019-04-04T19:21:25.518Z,97132.08
2019-04-04T19:23:55.871Z,97136.05
2019-04-04T19:26:26.075Z,97133.77
2019-04-04T19:28:57.977Z,97136.77
2019-04-04T19:31:28.184Z,97136.03
2019-04-04T19:33:58.488Z,97143.44
2019-04-04T19:36:28.736Z,97143.95
2019-04-04T19:38:58.968Z,97146.80
2019-04-04T19:41:29.308Z,97147.55
2019-04-04T19:43:59.779Z,97157.06
2019-04-04T19:46:36.910Z,97156.84
2019-04-04T19:49:02.890Z,97164.22
2019-04-04T19:51:33.285Z,97163.06
2019-04-04T19:54:03.787Z,97172.58
2019-04-04T19:56:34.297Z,97180.53
2019-04-04T19:59:04.697Z,97173.12
2019-04-04T20:01:36.599Z,97177.45
2019-04-04T20:04:07.092Z,97181.45
2019-04-04T20:06:38.953Z,97179.89
2019-04-04T20:09:11.307Z,97184.88
2019-04-04T20:11:41.748Z,97187.49
2019-04-04T20:14:11.970Z,97185.31
2019-04-04T20:16:43.899Z,97181.22
2019-04-04T20:19:14.252Z,97186.53
2019-04-04T20:21:45.607Z,97189.45
2019-04-04T20:24:17.436Z,97194.16
2019-04-04T20:26:48.144Z,97200.36
2019-04-04T20:29:19.201Z,97199.72
2019-04-04T20:31:52.632Z,97199.47
2019-04-04T20:34:22.929Z,97198.88
2019-04-04T20:36:57.055Z,97204.45
2019-04-04T20:39:28.657Z,97209.44
2019-04-04T20:41:58.885Z,97211.30
2019-04-04T20:44:29.652Z,97203.28
2019-04-04T20:47:01.524Z,97206.88
2019-04-04T20:49:31.773Z,97212.02
2019-04-04T20:52:01.972Z,97212.23
2019-04-04T20:54:32.182Z,97215.31
2019-04-04T20:57:02.430Z,97211.67
2019-04-04T20:59:34.986Z,97210.67
2019-04-04T21:02:05.254Z,97211.52
2019-04-04T21:04:35.550Z,97221.30
2019-04-04T21:07:05.795Z,97216.77
2019-04-04T21:09:36.061Z,97221.38
2019-04-04T21:12:06.498Z,97215.02
2019-04-04T21:14:37.795Z,97223.44
2019-04-04T21:17:08.390Z,97227.64
2019-04-04T21:19:39.021Z,97232.58
2019-04-04T21:22:09.301Z,97234.28
2019-04-04T21:24:39.890Z,97236.07
2019-04-04T21:27:10.138Z,97229.31
2019-04-04T21:29:40.847Z,97237.74
2019-04-04T21:32:11.119Z,97234.14
2019-04-04T21:34:41.363Z,97237.22
2019-04-04T21:37:11.645Z,97240.72
2019-04-04T21:39:41.888Z,97241.08
2019-04-04T21:42:12.739Z,97240.23
2019-04-04T21:44:42.923Z,97241.01
2019-04-04T21:47:13.179Z,97245.53
2019-04-04T21:49:43.472Z,97243.15
2019-04-04T21:52:13.728Z,97250.80
2019-04-04T21:54:43.949Z,97247.80
2019-04-04T21:57:14.152Z,97255.47
2019-04-04T21:59:45.095Z,97254.28
2019-04-04T22:02:15.603Z,97262.16
2019-04-04T22:04:45.979Z,97260.77
2019-04-04T22:07:16.185Z,97262.39
2019-04-04T22:09:46.405Z,97263.36
2019-04-04T22:12:16.759Z,97257.19
2019-04-04T22:14:47.139Z,97268.44
2019-04-04T22:17:17.380Z,97262.25
2019-04-04T22:19:47.597Z,97263.41
2019-04-04T22:22:17.846Z,97267.47
2019-04-04T22:24:48.120Z,97263.61
2019-04-04T22:27:18.347Z,97268.20
2019-04-04T22:29:49.005Z,97267.70
2019-04-04T22:32:20.315Z,97266.56
2019-04-04T22:34:50.593Z,97269.81
2019-04-04T22:37:20.926Z,97278.02
2019-04-04T22:39:51.190Z,97275.36
2019-04-04T22:42:21.409Z,97263.84
2019-04-04T22:44:51.606Z,97276.00
2019-04-04T22:47:21.836Z,97279.81
2019-04-04T22:49:52.160Z,97276.64
2019-04-04T22:52:22.394Z,97279.59
2019-04-04T22:54:52.638Z,97286.00
2019-04-04T22:57:22.858Z,97284.33
2019-04-04T22:59:53.080Z,97289.03
2019-04-04T23:02:23.335Z,97292.26
2019-04-04T23:04:53.640Z,97298.80
2019-04-04T23:07:23.838Z,97295.48
2019-04-04T23:09:54.087Z,97293.81
2019-04-04T23:12:24.380Z,97293.54
2019-04-04T23:14:54.598Z,97292.98
2019-04-04T23:17:24.871Z,97290.17
2019-04-04T23:19:55.156Z,97282.77
2019-04-04T23:22:25.387Z,97297.75
2019-04-04T23:24:55.663Z,97288.05
2019-04-04T23:27:25.954Z,97284.73
2019-04-04T23:29:56.405Z,97295.13
2019-04-04T23:32:26.673Z,97296.28
2019-04-04T23:34:56.962Z,97291.35
2019-04-04T23:37:27.204Z,97299.44
2019-04-04T23:39:57.440Z,97305.91
2019-04-04T23:42:27.672Z,97307.08
2019-04-04T23:45:01.114Z,97326.84
2019-04-04T23:47:41.622Z,97328.17
2019-04-04T23:50:01.856Z,97328.39
2019-04-04T23:52:32.108Z,97334.02
2019-04-04T23:55:02.328Z,97335.91
2019-04-04T23:57:33.027Z,97339.13
